AirNav   Airventure
 
 320 users online  

OL07 Carnegie Municipal Hospital Heliport
Carnegie, Oklahoma, USA


FAA INFORMATION EFFECTIVE 20 JULY 2017

Location

FAA Identifier: OL07
Lat/Long: 35-06-28.5200N / 098-36-18.4000W
35-06.475333N / 098-36.306667W
35.1079222 / -98.6051111
(estimated)
Elevation: 1234 ft. / 376 m (estimated)
Variation: 08E (1985)
Time zone: UTC -5 (UTC -6 during Standard Time)
Zip code: 73015

Heliport Operations

Heliport use: Private use, MEDICAL
Activation date: 07/1987
Control tower: no
ARTCC: FORT WORTH CENTER
FSS: MC ALESTER FLIGHT SERVICE STATION
Attendance: UNATNDD
Segmented circle: no
Lights: SS-SR

Nearby radio navigation aids

VOR radial/distance  VOR name  Freq  Var
HBRr047/26.8HOBART VORTAC111.8010E
BFVr100/30.5BURNS FLAT VORTAC110.0005E
LAWr337/37.9LAWTON VOR/DME109.4009E

 
NDB name  Hdg/Dist  Freq  Var  ID
TRAIL324/22.038809EOFZ --- ..-. --..
POST334/31.542508EPFL .--. ..-. .-..

Heliport Services

Runway Information

Helipad H1

Dimensions: 75 x 75 ft. / 23 x 23 m
Surface: asphalt
Runway edge lights: PERIMETER LGTS.
Latitude: 35-06.475333N
Longitude: 098-36.306667W
Elevation: 1234.0 ft.
Traffic pattern: leftleft

Heliport Ownership and Management from official FAA records

Ownership: Publicly-owned
Owner: CARNEGIE MUNICIPAL HOSPITAL
102 NORTH BROADWAY
CARNEGIE, OK 73015
Phone 580-654-1050
Manager: DORIS BROWN,ADMIN
PO BOX 97
CARNEGIE, OK 73015
Phone 580-654-1050

Instrument Procedures

There are no published instrument procedures at OL07.

Some nearby airports with instrument procedures:

KHBR - Hobart Regional Airport (23 nm W)
KOJA - Thomas P Stafford Airport (26 nm N)
2O8 - Hinton Municipal Airport (27 nm NE)
KFSI - Henry Post Army Airfield (Fort Sill) (29 nm S)
KCLK - Clinton Regional Airport (30 nm NW)
 
Loc | Ops | Rwys | IFR | FBO | Links
Com | Nav | Svcs | Stats | Notes


 
Area around OL07 (Carnegie Municipal Hospital Heliport)
 
Road maps at: MapQuest Bing Google
 
Aerial photo
No photo
 
Sectional chart

 
Airport distance calculator
Flying to Carnegie Municipal Hospital Heliport? Find the distance to fly.

From to OL07

Sunrise and sunset
Times for 26-Jul-2017
 Local
(UTC-5)
 Zulu
(UTC)
Morning civil twilight06:1211:12
Sunrise06:4011:40
Sunset20:4201:42
Evening civil twilight21:1002:10

Current date and time
Zulu (UTC)  26-Jul-2017 09:06:12
Local (UTC-5)  26-Jul-2017 04:06:12
 
METAR
KHBR 
23nm W 
260853Z AUTO 18013KT 10SM CLR 27/20 A3003 RMK AO2 SLP144 T02670200 50001
KOJA 
26nm N 
260855Z AUTO 17007KT 10SM CLR 26/21 A3003 RMK AO2
KCLK 
30nm NW 
260855Z AUTO 15009KT 10SM CLR 25/18 A3003 RMK AO2
KFSI 
30nm S 
260858Z AUTO 16008KT 10SM CLR 25/22 A3000 RMK AO2 SLP146 T02480220 58004 $
KCHK 
31nm E 
260855Z AUTO 15008KT 10SM CLR 26/21 A3000 RMK AO2 T02650205
KCSM 
33nm NW 
260853Z AUTO 18013KT 10SM CLR 26/19 A3004 RMK AO2 SLP140 T02610189 50001
KLAW 
35nm S 
260853Z AUTO 16008KT 10SM CLR 26/22 A3001 RMK AO2 SLP146 T02610217 58003
KRQO 
37nm NE 
260855Z AUTO 17009KT 10SM CLR 25/21 A3004 RMK AO2 T02540209
KLTS 
42nm SW 
260858Z AUTO 13006KT 10SM CLR 24/19 A3001 RMK AO2 SLP144 T02430189 50000
KELK 
43nm NW 
260855Z AUTO 18007KT 10SM CLR 26/19 A3003 RMK AO2 T02580187
TAF
KHBR 
23nm W 
260520Z 2606/2706 17015KT P6SM SKC FM261500 21016G22KT P6SM SKC FM270000 18011KT P6SM SCT250
NOTAMs
Click for the latest NOTAMs
NOTAMs are issued by the DoD/FAA and will open in a separate window not controlled by AirNav.

 

 
 

Would you like to see your business listed on this page?

 If your business provides an interesting product or service to pilots, flight crews, aircraft, or users of the Carnegie Municipal Hospital Heliport, you should consider listing it here.  To start the listing process, click on the button below
 
Add a business
 

Other Pages about Carnegie Municipal Hospital Heliport

Update a link
 
Copyright © AirNav, LLC. All rights reserved. Privacy Policy  Contact